sensor_id;sensor_type;location;lat;lon;timestamp;temperature;humidity
17208;DHT22;8720;48.488;9.202;2023-02-13T00:00:44;2.90;62.60
17208;DHT22;8720;48.488;9.202;2023-02-13T00:03:12;2.90;62.70
17208;DHT22;8720;48.488;9.202;2023-02-13T00:05:40;2.80;62.70
17208;DHT22;8720;48.488;9.202;2023-02-13T00:08:07;2.80;62.70
17208;DHT22;8720;48.488;9.202;2023-02-13T00:10:36;2.80;62.80
17208;DHT22;8720;48.488;9.202;2023-02-13T00:13:03;2.80;62.80
17208;DHT22;8720;48.488;9.202;2023-02-13T00:15:30;2.80;62.80
17208;DHT22;8720;48.488;9.202;2023-02-13T00:17:58;2.70;62.60
17208;DHT22;8720;48.488;9.202;2023-02-13T00:20:25;2.70;62.80
17208;DHT22;8720;48.488;9.202;2023-02-13T00:22:53;2.70;62.80
17208;DHT22;8720;48.488;9.202;2023-02-13T00:25:20;2.70;63.00
17208;DHT22;8720;48.488;9.202;2023-02-13T00:27:49;2.70;63.00
17208;DHT22;8720;48.488;9.202;2023-02-13T00:30:18;2.70;63.20
17208;DHT22;8720;48.488;9.202;2023-02-13T00:32:46;2.70;63.20
17208;DHT22;8720;48.488;9.202;2023-02-13T00:35:14;2.60;63.20
17208;DHT22;8720;48.488;9.202;2023-02-13T00:37:41;2.70;63.30
17208;DHT22;8720;48.488;9.202;2023-02-13T00:40:09;2.60;63.30
17208;DHT22;8720;48.488;9.202;2023-02-13T00:42:38;2.60;63.40
17208;DHT22;8720;48.488;9.202;2023-02-13T00:45:07;2.60;63.40
17208;DHT22;8720;48.488;9.202;2023-02-13T00:47:35;2.60;63.60
17208;DHT22;8720;48.488;9.202;2023-02-13T00:50:02;2.60;63.70
17208;DHT22;8720;48.488;9.202;2023-02-13T00:52:30;2.60;63.80
17208;DHT22;8720;48.488;9.202;2023-02-13T00:54:57;2.60;64.00
17208;DHT22;8720;48.488;9.202;2023-02-13T00:57:25;2.60;64.00
17208;DHT22;8720;48.488;9.202;2023-02-13T00:59:52;2.60;64.10
17208;DHT22;8720;48.488;9.202;2023-02-13T01:02:20;2.60;64.00
17208;DHT22;8720;48.488;9.202;2023-02-13T01:04:48;2.60;63.90
17208;DHT22;8720;48.488;9.202;2023-02-13T01:07:17;2.60;63.80
17208;DHT22;8720;48.488;9.202;2023-02-13T01:09:44;2.60;63.70
17208;DHT22;8720;48.488;9.202;2023-02-13T01:12:12;2.60;63.50
17208;DHT22;8720;48.488;9.202;2023-02-13T01:14:41;2.60;63.40
17208;DHT22;8720;48.488;9.202;2023-02-13T01:17:09;2.50;63.30
17208;DHT22;8720;48.488;9.202;2023-02-13T01:19:39;2.50;63.30
17208;DHT22;8720;48.488;9.202;2023-02-13T01:22:07;2.50;63.30
17208;DHT22;8720;48.488;9.202;2023-02-13T01:24:34;2.50;63.30
17208;DHT22;8720;48.488;9.202;2023-02-13T01:27:02;2.50;63.20
17208;DHT22;8720;48.488;9.202;2023-02-13T01:29:29;2.40;63.20
17208;DHT22;8720;48.488;9.202;2023-02-13T01:31:56;2.40;63.30
17208;DHT22;8720;48.488;9.202;2023-02-13T01:34:27;2.40;63.40
17208;DHT22;8720;48.488;9.202;2023-02-13T01:36:56;2.40;63.30
17208;DHT22;8720;48.488;9.202;2023-02-13T01:39:23;2.40;63.30
17208;DHT22;8720;48.488;9.202;2023-02-13T01:41:51;2.40;63.20
17208;DHT22;8720;48.488;9.202;2023-02-13T01:44:44;2.40;63.00
17208;DHT22;8720;48.488;9.202;2023-02-13T01:47:19;2.30;62.80
17208;DHT22;8720;48.488;9.202;2023-02-13T01:49:59;2.30;62.80
17208;DHT22;8720;48.488;9.202;2023-02-13T01:52:34;2.30;62.80
17208;DHT22;8720;48.488;9.202;2023-02-13T01:55:06;2.30;62.80
17208;DHT22;8720;48.488;9.202;2023-02-13T01:57:36;2.20;62.80
17208;DHT22;8720;48.488;9.202;2023-02-13T02:00:12;2.20;62.80
17208;DHT22;8720;48.488;9.202;2023-02-13T02:02:47;2.20;62.80
17208;DHT22;8720;48.488;9.202;2023-02-13T02:05:24;2.20;62.80
17208;DHT22;8720;48.488;9.202;2023-02-13T02:07:57;2.10;62.70
17208;DHT22;8720;48.488;9.202;2023-02-13T02:10:27;2.10;62.80
17208;DHT22;8720;48.488;9.202;2023-02-13T02:12:59;2.10;62.80
17208;DHT22;8720;48.488;9.202;2023-02-13T02:15:30;2.10;62.80
17208;DHT22;8720;48.488;9.202;2023-02-13T02:17:58;2.10;62.80
17208;DHT22;8720;48.488;9.202;2023-02-13T02:20:42;2.00;63.40
17208;DHT22;8720;48.488;9.202;2023-02-13T02:27:34;2.00;62.60
17208;DHT22;8720;48.488;9.202;2023-02-13T02:33:42;2.00;62.50
17208;DHT22;8720;48.488;9.202;2023-02-13T02:36:32;1.90;62.50
17208;DHT22;8720;48.488;9.202;2023-02-13T02:39:15;1.90;62.50
17208;DHT22;8720;48.488;9.202;2023-02-13T02:42:02;1.90;62.50
17208;DHT22;8720;48.488;9.202;2023-02-13T02:44:42;1.90;62.50
17208;DHT22;8720;48.488;9.202;2023-02-13T02:47:23;1.80;62.50
17208;DHT22;8720;48.488;9.202;2023-02-13T02:50:27;1.80;62.50
17208;DHT22;8720;48.488;9.202;2023-02-13T02:53:25;1.80;62.40
17208;DHT22;8720;48.488;9.202;2023-02-13T02:56:02;1.80;62.30
17208;DHT22;8720;48.488;9.202;2023-02-13T02:58:37;1.80;63.10
17208;DHT22;8720;48.488;9.202;2023-02-13T03:01:29;1.70;62.40
17208;DHT22;8720;48.488;9.202;2023-02-13T03:04:21;1.70;62.50
17208;DHT22;8720;48.488;9.202;2023-02-13T03:07:13;1.70;62.50
17208;DHT22;8720;48.488;9.202;2023-02-13T03:09:46;1.70;62.50
17208;DHT22;8720;48.488;9.202;2023-02-13T03:12:37;1.70;62.70
17208;DHT22;8720;48.488;9.202;2023-02-13T03:15:28;1.70;62.80
17208;DHT22;8720;48.488;9.202;2023-02-13T03:17:57;1.70;63.00
17208;DHT22;8720;48.488;9.202;2023-02-13T03:20:45;1.70;63.10
17208;DHT22;8720;48.488;9.202;2023-02-13T03:23:45;1.70;63.10
17208;DHT22;8720;48.488;9.202;2023-02-13T03:26:35;1.70;63.10
17208;DHT22;8720;48.488;9.202;2023-02-13T03:29:33;1.70;63.20
17208;DHT22;8720;48.488;9.202;2023-02-13T03:32:32;1.70;63.20
17208;DHT22;8720;48.488;9.202;2023-02-13T03:35:15;1.70;63.30
17208;DHT22;8720;48.488;9.202;2023-02-13T03:38:13;1.70;63.40
17208;DHT22;8720;48.488;9.202;2023-02-13T03:40:50;1.70;63.50
17208;DHT22;8720;48.488;9.202;2023-02-13T03:43:52;1.70;63.60
17208;DHT22;8720;48.488;9.202;2023-02-13T03:46:32;1.70;63.50
17208;DHT22;8720;48.488;9.202;2023-02-13T03:49:03;1.60;63.40
17208;DHT22;8720;48.488;9.202;2023-02-13T03:51:54;1.60;63.30
17208;DHT22;8720;48.488;9.202;2023-02-13T03:54:28;1.60;63.10
17208;DHT22;8720;48.488;9.202;2023-02-13T03:57:20;1.60;63.10
17208;DHT22;8720;48.488;9.202;2023-02-13T04:00:12;1.60;63.10
17208;DHT22;8720;48.488;9.202;2023-02-13T04:02:53;1.60;63.10
17208;DHT22;8720;48.488;9.202;2023-02-13T04:05:28;1.60;63.10
17208;DHT22;8720;48.488;9.202;2023-02-13T04:08:01;1.50;63.10
17208;DHT22;8720;48.488;9.202;2023-02-13T04:10:30;1.50;63.20
17208;DHT22;8720;48.488;9.202;2023-02-13T04:13:09;1.50;63.40
17208;DHT22;8720;48.488;9.202;2023-02-13T04:15:44;1.50;63.60
17208;DHT22;8720;48.488;9.202;2023-02-13T04:18:17;1.50;63.60
17208;DHT22;8720;48.488;9.202;2023-02-13T04:20:48;1.50;63.60
17208;DHT22;8720;48.488;9.202;2023-02-13T04:23:16;1.50;63.60
17208;DHT22;8720;48.488;9.202;2023-02-13T04:25:45;1.50;63.50
17208;DHT22;8720;48.488;9.202;2023-02-13T04:28:15;1.50;63.40
17208;DHT22;8720;48.488;9.202;2023-02-13T04:30:43;1.50;63.40
17208;DHT22;8720;48.488;9.202;2023-02-13T04:33:10;1.50;63.30
17208;DHT22;8720;48.488;9.202;2023-02-13T04:35:37;1.50;63.30
17208;DHT22;8720;48.488;9.202;2023-02-13T04:38:05;1.50;63.20
17208;DHT22;8720;48.488;9.202;2023-02-13T04:40:32;1.40;63.00
17208;DHT22;8720;48.488;9.202;2023-02-13T04:42:59;1.40;63.00
17208;DHT22;8720;48.488;9.202;2023-02-13T04:45:28;1.40;62.90
17208;DHT22;8720;48.488;9.202;2023-02-13T04:47:56;1.40;62.80
17208;DHT22;8720;48.488;9.202;2023-02-13T04:50:25;1.30;62.80
17208;DHT22;8720;48.488;9.202;2023-02-13T04:52:53;1.30;62.80
17208;DHT22;8720;48.488;9.202;2023-02-13T04:55:21;1.30;62.80
17208;DHT22;8720;48.488;9.202;2023-02-13T04:57:51;1.20;62.80
17208;DHT22;8720;48.488;9.202;2023-02-13T05:00:20;1.20;62.60
17208;DHT22;8720;48.488;9.202;2023-02-13T05:02:49;1.20;62.60
17208;DHT22;8720;48.488;9.202;2023-02-13T05:05:17;1.10;62.50
17208;DHT22;8720;48.488;9.202;2023-02-13T05:07:45;1.10;62.50
17208;DHT22;8720;48.488;9.202;2023-02-13T05:10:12;1.10;62.40
17208;DHT22;8720;48.488;9.202;2023-02-13T05:12:39;1.10;62.50
17208;DHT22;8720;48.488;9.202;2023-02-13T05:15:08;1.00;62.40
17208;DHT22;8720;48.488;9.202;2023-02-13T05:17:35;1.00;62.50
17208;DHT22;8720;48.488;9.202;2023-02-13T05:20:06;1.00;62.50
17208;DHT22;8720;48.488;9.202;2023-02-13T05:22:33;0.90;62.20
17208;DHT22;8720;48.488;9.202;2023-02-13T05:25:18;0.90;62.30
17208;DHT22;8720;48.488;9.202;2023-02-13T05:27:46;0.90;62.30
17208;DHT22;8720;48.488;9.202;2023-02-13T05:30:14;0.90;62.40
17208;DHT22;8720;48.488;9.202;2023-02-13T05:32:40;0.80;62.40
17208;DHT22;8720;48.488;9.202;2023-02-13T05:35:09;0.80;62.30
17208;DHT22;8720;48.488;9.202;2023-02-13T05:37:36;0.80;62.20
17208;DHT22;8720;48.488;9.202;2023-02-13T05:40:04;0.80;62.30
17208;DHT22;8720;48.488;9.202;2023-02-13T05:42:33;0.80;62.40
17208;DHT22;8720;48.488;9.202;2023-02-13T05:45:00;0.80;62.40
17208;DHT22;8720;48.488;9.202;2023-02-13T05:47:27;0.80;62.40
17208;DHT22;8720;48.488;9.202;2023-02-13T05:49:54;0.80;62.40
17208;DHT22;8720;48.488;9.202;2023-02-13T05:52:23;0.80;62.40
17208;DHT22;8720;48.488;9.202;2023-02-13T05:54:50;0.70;62.40
17208;DHT22;8720;48.488;9.202;2023-02-13T05:57:18;0.70;63.00
17208;DHT22;8720;48.488;9.202;2023-02-13T05:59:45;0.70;62.40
17208;DHT22;8720;48.488;9.202;2023-02-13T06:02:12;0.70;62.50
17208;DHT22;8720;48.488;9.202;2023-02-13T06:04:40;0.70;62.50
17208;DHT22;8720;48.488;9.202;2023-02-13T06:07:07;0.70;62.40
17208;DHT22;8720;48.488;9.202;2023-02-13T06:09:36;0.70;62.50
17208;DHT22;8720;48.488;9.202;2023-02-13T06:12:04;0.70;62.40
17208;DHT22;8720;48.488;9.202;2023-02-13T06:14:31;0.70;62.50
17208;DHT22;8720;48.488;9.202;2023-02-13T06:16:59;0.70;62.50
17208;DHT22;8720;48.488;9.202;2023-02-13T06:19:27;0.70;62.50
17208;DHT22;8720;48.488;9.202;2023-02-13T06:21:54;0.70;62.50
17208;DHT22;8720;48.488;9.202;2023-02-13T06:24:21;0.70;62.50
17208;DHT22;8720;48.488;9.202;2023-02-13T06:26:50;0.70;62.50
17208;DHT22;8720;48.488;9.202;2023-02-13T06:29:17;0.70;62.40
17208;DHT22;8720;48.488;9.202;2023-02-13T06:31:44;0.70;62.50
17208;DHT22;8720;48.488;9.202;2023-02-13T06:34:12;0.70;62.50
17208;DHT22;8720;48.488;9.202;2023-02-13T06:36:39;0.70;62.50
17208;DHT22;8720;48.488;9.202;2023-02-13T06:39:08;0.70;62.40
17208;DHT22;8720;48.488;9.202;2023-02-13T06:41:36;0.70;62.20
17208;DHT22;8720;48.488;9.202;2023-02-13T06:44:05;0.70;62.30
17208;DHT22;8720;48.488;9.202;2023-02-13T06:46:32;0.70;62.20
17208;DHT22;8720;48.488;9.202;2023-02-13T06:49:00;0.70;62.30
17208;DHT22;8720;48.488;9.202;2023-02-13T06:51:27;0.60;63.40
17208;DHT22;8720;48.488;9.202;2023-02-13T06:53:54;0.60;63.10
17208;DHT22;8720;48.488;9.202;2023-02-13T06:56:22;0.70;63.60
17208;DHT22;8720;48.488;9.202;2023-02-13T06:58:51;0.70;62.80
17208;DHT22;8720;48.488;9.202;2023-02-13T07:01:19;0.80;62.70
17208;DHT22;8720;48.488;9.202;2023-02-13T07:03:47;0.80;62.50
17208;DHT22;8720;48.488;9.202;2023-02-13T07:06:16;0.80;62.40
17208;DHT22;8720;48.488;9.202;2023-02-13T07:08:44;0.90;62.30
17208;DHT22;8720;48.488;9.202;2023-02-13T07:11:16;0.90;62.30
17208;DHT22;8720;48.488;9.202;2023-02-13T07:13:44;0.90;62.10
17208;DHT22;8720;48.488;9.202;2023-02-13T07:16:11;0.90;62.20
17208;DHT22;8720;48.488;9.202;2023-02-13T07:18:40;1.00;62.30
17208;DHT22;8720;48.488;9.202;2023-02-13T07:21:08;1.00;62.20
17208;DHT22;8720;48.488;9.202;2023-02-13T07:23:35;1.00;62.30
17208;DHT22;8720;48.488;9.202;2023-02-13T07:26:03;1.10;62.40
17208;DHT22;8720;48.488;9.202;2023-02-13T07:28:30;1.10;62.40
17208;DHT22;8720;48.488;9.202;2023-02-13T07:31:02;1.10;63.10
17208;DHT22;8720;48.488;9.202;2023-02-13T07:33:31;1.10;62.70
17208;DHT22;8720;48.488;9.202;2023-02-13T07:36:02;1.20;63.10
17208;DHT22;8720;48.488;9.202;2023-02-13T07:38:31;1.20;63.20
17208;DHT22;8720;48.488;9.202;2023-02-13T07:40:59;1.40;63.90
17208;DHT22;8720;48.488;9.202;2023-02-13T07:43:28;1.50;64.20
17208;DHT22;8720;48.488;9.202;2023-02-13T07:45:58;1.60;64.30
17208;DHT22;8720;48.488;9.202;2023-02-13T07:48:26;1.70;64.30
17208;DHT22;8720;48.488;9.202;2023-02-13T07:51:00;1.80;64.40
17208;DHT22;8720;48.488;9.202;2023-02-13T07:53:29;2.00;65.10
17208;DHT22;8720;48.488;9.202;2023-02-13T07:55:56;2.10;64.60
17208;DHT22;8720;48.488;9.202;2023-02-13T07:58:24;2.30;65.30
17208;DHT22;8720;48.488;9.202;2023-02-13T08:00:51;2.40;64.50
17208;DHT22;8720;48.488;9.202;2023-02-13T08:03:22;2.50;64.30
17208;DHT22;8720;48.488;9.202;2023-02-13T08:05:50;2.60;63.70
17208;DHT22;8720;48.488;9.202;2023-02-13T08:08:19;2.70;63.70
17208;DHT22;8720;48.488;9.202;2023-02-13T08:10:46;2.80;63.30
17208;DHT22;8720;48.488;9.202;2023-02-13T08:13:31;2.90;63.40
17208;DHT22;8720;48.488;9.202;2023-02-13T08:15:59;2.90;63.00
17208;DHT22;8720;48.488;9.202;2023-02-13T08:18:26;3.00;63.00
17208;DHT22;8720;48.488;9.202;2023-02-13T08:20:54;3.00;63.00
17208;DHT22;8720;48.488;9.202;2023-02-13T08:23:22;3.10;63.10
17208;DHT22;8720;48.488;9.202;2023-02-13T08:25:50;3.10;63.00
17208;DHT22;8720;48.488;9.202;2023-02-13T08:28:17;3.20;63.40
17208;DHT22;8720;48.488;9.202;2023-02-13T08:30:45;3.30;63.40
17208;DHT22;8720;48.488;9.202;2023-02-13T08:33:12;3.30;63.30
17208;DHT22;8720;48.488;9.202;2023-02-13T08:35:39;3.40;63.20
17208;DHT22;8720;48.488;9.202;2023-02-13T08:38:07;3.40;63.00
17208;DHT22;8720;48.488;9.202;2023-02-13T08:40:36;3.50;63.10
17208;DHT22;8720;48.488;9.202;2023-02-13T08:43:05;3.50;63.00
17208;DHT22;8720;48.488;9.202;2023-02-13T08:45:33;3.60;63.20
17208;DHT22;8720;48.488;9.202;2023-02-13T08:48:01;3.60;63.10
17208;DHT22;8720;48.488;9.202;2023-02-13T08:50:30;3.70;63.10
17208;DHT22;8720;48.488;9.202;2023-02-13T08:52:58;3.70;63.20
17208;DHT22;8720;48.488;9.202;2023-02-13T08:55:26;3.80;63.30
17208;DHT22;8720;48.488;9.202;2023-02-13T08:57:58;3.90;63.50
17208;DHT22;8720;48.488;9.202;2023-02-13T09:00:27;3.90;63.30
17208;DHT22;8720;48.488;9.202;2023-02-13T09:02:57;4.00;63.70
17208;DHT22;8720;48.488;9.202;2023-02-13T09:05:26;4.00;63.80
17208;DHT22;8720;48.488;9.202;2023-02-13T09:07:54;4.10;63.80
17208;DHT22;8720;48.488;9.202;2023-02-13T09:10:21;4.20;63.90
17208;DHT22;8720;48.488;9.202;2023-02-13T09:12:51;4.20;63.80
17208;DHT22;8720;48.488;9.202;2023-02-13T09:15:20;4.30;63.90
17208;DHT22;8720;48.488;9.202;2023-02-13T09:17:48;4.40;64.00
17208;DHT22;8720;48.488;9.202;2023-02-13T09:20:15;4.50;64.00
17208;DHT22;8720;48.488;9.202;2023-02-13T09:22:42;4.50;63.80
17208;DHT22;8720;48.488;9.202;2023-02-13T09:25:10;4.60;63.80
17208;DHT22;8720;48.488;9.202;2023-02-13T09:27:37;4.60;63.80
17208;DHT22;8720;48.488;9.202;2023-02-13T09:30:06;4.70;63.80
17208;DHT22;8720;48.488;9.202;2023-02-13T09:32:36;4.80;63.80
17208;DHT22;8720;48.488;9.202;2023-02-13T09:35:03;4.80;63.70
17208;DHT22;8720;48.488;9.202;2023-02-13T09:37:32;4.90;63.80
17208;DHT22;8720;48.488;9.202;2023-02-13T09:39:59;5.00;63.90
17208;DHT22;8720;48.488;9.202;2023-02-13T09:42:30;5.00;63.90
17208;DHT22;8720;48.488;9.202;2023-02-13T09:45:04;5.10;63.50
17208;DHT22;8720;48.488;9.202;2023-02-13T09:47:36;5.20;63.40
17208;DHT22;8720;48.488;9.202;2023-02-13T09:50:12;5.20;63.40
17208;DHT22;8720;48.488;9.202;2023-02-13T09:52:45;5.30;63.20
17208;DHT22;8720;48.488;9.202;2023-02-13T09:55:16;5.30;63.40
17208;DHT22;8720;48.488;9.202;2023-02-13T09:57:50;5.40;63.70
17208;DHT22;8720;48.488;9.202;2023-02-13T10:00:29;5.40;63.60
17208;DHT22;8720;48.488;9.202;2023-02-13T10:03:33;5.50;63.50
17208;DHT22;8720;48.488;9.202;2023-02-13T10:06:10;5.50;62.20
17208;DHT22;8720;48.488;9.202;2023-02-13T10:08:53;5.60;63.10
17208;DHT22;8720;48.488;9.202;2023-02-13T10:12:07;5.60;62.90
17208;DHT22;8720;48.488;9.202;2023-02-13T10:14:48;5.70;62.00
17208;DHT22;8720;48.488;9.202;2023-02-13T10:17:29;5.70;62.90
17208;DHT22;8720;48.488;9.202;2023-02-13T10:20:05;5.80;62.80
17208;DHT22;8720;48.488;9.202;2023-02-13T10:22:39;5.80;62.90
17208;DHT22;8720;48.488;9.202;2023-02-13T10:25:15;5.80;62.90
17208;DHT22;8720;48.488;9.202;2023-02-13T10:27:50;5.90;62.80
17208;DHT22;8720;48.488;9.202;2023-02-13T10:30:23;6.00;62.90
17208;DHT22;8720;48.488;9.202;2023-02-13T10:32:58;6.00;62.90
17208;DHT22;8720;48.488;9.202;2023-02-13T10:35:51;6.10;62.70
17208;DHT22;8720;48.488;9.202;2023-02-13T10:38:24;6.10;62.60
17208;DHT22;8720;48.488;9.202;2023-02-13T10:41:03;6.20;62.90
17208;DHT22;8720;48.488;9.202;2023-02-13T10:43:57;6.20;62.10
17208;DHT22;8720;48.488;9.202;2023-02-13T10:46:45;6.30;62.00
17208;DHT22;8720;48.488;9.202;2023-02-13T10:49:28;6.30;62.30
17208;DHT22;8720;48.488;9.202;2023-02-13T10:52:16;6.40;62.30
17208;DHT22;8720;48.488;9.202;2023-02-13T10:55:14;6.40;62.30
17208;DHT22;8720;48.488;9.202;2023-02-13T10:58:03;6.50;61.80
17208;DHT22;8720;48.488;9.202;2023-02-13T11:00:38;6.50;62.00
17208;DHT22;8720;48.488;9.202;2023-02-13T11:03:17;6.60;62.50
17208;DHT22;8720;48.488;9.202;2023-02-13T11:05:47;6.70;62.10
17208;DHT22;8720;48.488;9.202;2023-02-13T11:08:20;6.70;62.60
17208;DHT22;8720;48.488;9.202;2023-02-13T11:10:50;6.80;62.20
17208;DHT22;8720;48.488;9.202;2023-02-13T11:13:20;6.90;62.60
17208;DHT22;8720;48.488;9.202;2023-02-13T11:16:01;7.00;62.50
17208;DHT22;8720;48.488;9.202;2023-02-13T11:18:31;7.10;61.70
17208;DHT22;8720;48.488;9.202;2023-02-13T11:21:05;7.20;62.70
17208;DHT22;8720;48.488;9.202;2023-02-13T11:23:42;7.40;62.20
17208;DHT22;8720;48.488;9.202;2023-02-13T11:26:14;7.50;61.70
17208;DHT22;8720;48.488;9.202;2023-02-13T11:28:52;7.60;62.00
17208;DHT22;8720;48.488;9.202;2023-02-13T11:31:25;7.80;62.40
17208;DHT22;8720;48.488;9.202;2023-02-13T11:33:55;7.90;62.30
17208;DHT22;8720;48.488;9.202;2023-02-13T11:36:27;8.10;62.30
17208;DHT22;8720;48.488;9.202;2023-02-13T11:39:03;8.20;62.00
17208;DHT22;8720;48.488;9.202;2023-02-13T11:41:38;8.40;60.90
17208;DHT22;8720;48.488;9.202;2023-02-13T11:44:21;8.50;60.90
17208;DHT22;8720;48.488;9.202;2023-02-13T11:46:53;8.60;59.80
17208;DHT22;8720;48.488;9.202;2023-02-13T11:49:23;8.70;61.10
17208;DHT22;8720;48.488;9.202;2023-02-13T11:51:53;8.80;61.10
17208;DHT22;8720;48.488;9.202;2023-02-13T11:54:29;8.90;60.90
17208;DHT22;8720;48.488;9.202;2023-02-13T11:57:01;9.00;59.50
17208;DHT22;8720;48.488;9.202;2023-02-13T11:59:43;9.10;60.20
17208;DHT22;8720;48.488;9.202;2023-02-13T12:02:15;9.20;60.00
17208;DHT22;8720;48.488;9.202;2023-02-13T12:04:45;9.20;59.80
17208;DHT22;8720;48.488;9.202;2023-02-13T12:07:18;9.30;60.10
17208;DHT22;8720;48.488;9.202;2023-02-13T12:09:52;9.40;59.10
17208;DHT22;8720;48.488;9.202;2023-02-13T12:12:29;9.40;59.30
17208;DHT22;8720;48.488;9.202;2023-02-13T12:15:09;9.50;58.80
17208;DHT22;8720;48.488;9.202;2023-02-13T12:17:44;9.50;58.90
17208;DHT22;8720;48.488;9.202;2023-02-13T12:20:16;9.60;59.00
17208;DHT22;8720;48.488;9.202;2023-02-13T12:22:56;9.60;58.80
17208;DHT22;8720;48.488;9.202;2023-02-13T12:25:43;9.70;57.70
17208;DHT22;8720;48.488;9.202;2023-02-13T12:28:22;9.70;57.60
17208;DHT22;8720;48.488;9.202;2023-02-13T12:31:14;9.80;58.20
17208;DHT22;8720;48.488;9.202;2023-02-13T12:34:14;9.80;57.20
17208;DHT22;8720;48.488;9.202;2023-02-13T12:37:18;9.80;57.10
17208;DHT22;8720;48.488;9.202;2023-02-13T12:40:05;9.90;57.50
17208;DHT22;8720;48.488;9.202;2023-02-13T12:43:02;9.90;57.70
17208;DHT22;8720;48.488;9.202;2023-02-13T12:45:43;9.90;57.40
17208;DHT22;8720;48.488;9.202;2023-02-13T12:48:30;10.00;57.10
17208;DHT22;8720;48.488;9.202;2023-02-13T12:51:17;10.00;55.60
17208;DHT22;8720;48.488;9.202;2023-02-13T12:54:11;10.00;56.00
17208;DHT22;8720;48.488;9.202;2023-02-13T12:57:16;10.10;55.20
17208;DHT22;8720;48.488;9.202;2023-02-13T13:00:02;10.10;55.90
17208;DHT22;8720;48.488;9.202;2023-02-13T13:03:24;10.10;55.40
17208;DHT22;8720;48.488;9.202;2023-02-13T13:06:17;10.20;54.90
17208;DHT22;8720;48.488;9.202;2023-02-13T13:09:12;10.20;55.20
17208;DHT22;8720;48.488;9.202;2023-02-13T13:12:09;10.30;55.80
17208;DHT22;8720;48.488;9.202;2023-02-13T13:14:48;10.30;55.80
17208;DHT22;8720;48.488;9.202;2023-02-13T13:17:35;10.30;56.00
17208;DHT22;8720;48.488;9.202;2023-02-13T13:20:36;10.30;55.20
17208;DHT22;8720;48.488;9.202;2023-02-13T13:23:20;10.30;54.50
17208;DHT22;8720;48.488;9.202;2023-02-13T13:25:57;10.40;55.90
17208;DHT22;8720;48.488;9.202;2023-02-13T13:28:35;10.40;55.20
17208;DHT22;8720;48.488;9.202;2023-02-13T13:31:08;10.40;55.70
17208;DHT22;8720;48.488;9.202;2023-02-13T13:33:41;10.40;55.70
17208;DHT22;8720;48.488;9.202;2023-02-13T13:36:15;10.40;55.50
17208;DHT22;8720;48.488;9.202;2023-02-13T13:38:57;10.50;55.50
17208;DHT22;8720;48.488;9.202;2023-02-13T13:41:34;10.50;55.30
17208;DHT22;8720;48.488;9.202;2023-02-13T13:44:18;10.50;55.10
17208;DHT22;8720;48.488;9.202;2023-02-13T13:47:05;10.50;54.90
17208;DHT22;8720;48.488;9.202;2023-02-13T13:49:49;10.50;54.80
17208;DHT22;8720;48.488;9.202;2023-02-13T13:52:24;10.50;55.20
17208;DHT22;8720;48.488;9.202;2023-02-13T13:54:54;10.50;54.90
17208;DHT22;8720;48.488;9.202;2023-02-13T13:57:26;10.50;55.30
17208;DHT22;8720;48.488;9.202;2023-02-13T14:00:27;10.50;55.40
17208;DHT22;8720;48.488;9.202;2023-02-13T14:03:23;10.50;54.30
17208;DHT22;8720;48.488;9.202;2023-02-13T14:06:06;10.50;54.10
17208;DHT22;8720;48.488;9.202;2023-02-13T14:09:05;10.50;54.60
17208;DHT22;8720;48.488;9.202;2023-02-13T14:11:54;10.50;53.60
17208;DHT22;8720;48.488;9.202;2023-02-13T14:14:50;10.50;55.30
17208;DHT22;8720;48.488;9.202;2023-02-13T14:17:49;10.50;53.50
17208;DHT22;8720;48.488;9.202;2023-02-13T14:20:41;10.50;53.80
17208;DHT22;8720;48.488;9.202;2023-02-13T14:23:42;10.50;53.90
17208;DHT22;8720;48.488;9.202;2023-02-13T14:26:35;10.50;53.70
17208;DHT22;8720;48.488;9.202;2023-02-13T14:29:32;10.50;53.90
17208;DHT22;8720;48.488;9.202;2023-02-13T14:32:04;10.50;54.10
17208;DHT22;8720;48.488;9.202;2023-02-13T14:34:50;10.50;54.70
17208;DHT22;8720;48.488;9.202;2023-02-13T14:37:26;10.40;54.40
17208;DHT22;8720;48.488;9.202;2023-02-13T14:40:28;10.40;54.40
17208;DHT22;8720;48.488;9.202;2023-02-13T14:43:01;10.40;53.40
17208;DHT22;8720;48.488;9.202;2023-02-13T14:45:48;10.40;54.90
17208;DHT22;8720;48.488;9.202;2023-02-13T14:48:23;10.40;54.80
17208;DHT22;8720;48.488;9.202;2023-02-13T14:51:00;10.30;54.90
17208;DHT22;8720;48.488;9.202;2023-02-13T14:53:40;10.30;55.30
17208;DHT22;8720;48.488;9.202;2023-02-13T14:56:18;10.30;54.40
17208;DHT22;8720;48.488;9.202;2023-02-13T14:58:50;10.30;54.90
17208;DHT22;8720;48.488;9.202;2023-02-13T15:01:29;10.30;55.40
17208;DHT22;8720;48.488;9.202;2023-02-13T15:04:04;10.20;54.70
17208;DHT22;8720;48.488;9.202;2023-02-13T15:06:38;10.20;54.20
17208;DHT22;8720;48.488;9.202;2023-02-13T15:09:23;10.10;54.50
17208;DHT22;8720;48.488;9.202;2023-02-13T15:11:57;10.10;53.90
17208;DHT22;8720;48.488;9.202;2023-02-13T15:14:30;10.00;55.40
17208;DHT22;8720;48.488;9.202;2023-02-13T15:17:05;9.90;55.20
17208;DHT22;8720;48.488;9.202;2023-02-13T15:19:41;9.90;55.50
17208;DHT22;8720;48.488;9.202;2023-02-13T15:22:18;9.90;55.70
17208;DHT22;8720;48.488;9.202;2023-02-13T15:24:49;9.80;55.30
17208;DHT22;8720;48.488;9.202;2023-02-13T15:27:19;9.70;55.60
17208;DHT22;8720;48.488;9.202;2023-02-13T15:29:56;9.70;55.70
17208;DHT22;8720;48.488;9.202;2023-02-13T15:32:32;9.60;55.40
17208;DHT22;8720;48.488;9.202;2023-02-13T15:35:16;9.50;55.50
17208;DHT22;8720;48.488;9.202;2023-02-13T15:37:47;9.50;55.30
17208;DHT22;8720;48.488;9.202;2023-02-13T15:40:23;9.40;56.10
17208;DHT22;8720;48.488;9.202;2023-02-13T15:42:54;9.30;55.50
17208;DHT22;8720;48.488;9.202;2023-02-13T15:45:25;9.30;56.00
17208;DHT22;8720;48.488;9.202;2023-02-13T15:47:54;9.20;55.80
17208;DHT22;8720;48.488;9.202;2023-02-13T15:50:30;9.10;55.90
17208;DHT22;8720;48.488;9.202;2023-02-13T15:53:04;9.10;55.60
17208;DHT22;8720;48.488;9.202;2023-02-13T15:55:40;9.00;55.80
17208;DHT22;8720;48.488;9.202;2023-02-13T15:58:10;8.90;55.90
17208;DHT22;8720;48.488;9.202;2023-02-13T16:00:41;8.80;55.90
17208;DHT22;8720;48.488;9.202;2023-02-13T16:03:16;8.70;56.00
17208;DHT22;8720;48.488;9.202;2023-02-13T16:05:45;8.70;55.70
17208;DHT22;8720;48.488;9.202;2023-02-13T16:08:29;8.60;56.10
17208;DHT22;8720;48.488;9.202;2023-02-13T16:11:32;8.50;55.40
17208;DHT22;8720;48.488;9.202;2023-02-13T16:14:16;8.40;55.20
17208;DHT22;8720;48.488;9.202;2023-02-13T16:16:50;8.30;55.50
17208;DHT22;8720;48.488;9.202;2023-02-13T16:19:32;8.20;56.10
17208;DHT22;8720;48.488;9.202;2023-02-13T16:22:13;8.10;56.00
17208;DHT22;8720;48.488;9.202;2023-02-13T16:24:49;8.00;56.30
17208;DHT22;8720;48.488;9.202;2023-02-13T16:27:21;7.90;56.60
17208;DHT22;8720;48.488;9.202;2023-02-13T16:29:55;7.80;56.60
17208;DHT22;8720;48.488;9.202;2023-02-13T16:32:29;7.70;56.60
17208;DHT22;8720;48.488;9.202;2023-02-13T16:35:14;7.60;56.60
17208;DHT22;8720;48.488;9.202;2023-02-13T16:37:49;7.50;56.40
17208;DHT22;8720;48.488;9.202;2023-02-13T16:40:36;7.40;56.70
17208;DHT22;8720;48.488;9.202;2023-02-13T16:43:45;7.30;56.50
17208;DHT22;8720;48.488;9.202;2023-02-13T16:46:19;7.20;56.50
17208;DHT22;8720;48.488;9.202;2023-02-13T16:49:15;7.10;57.00
17208;DHT22;8720;48.488;9.202;2023-02-13T16:51:48;7.00;57.00
17208;DHT22;8720;48.488;9.202;2023-02-13T16:54:33;6.90;57.20
17208;DHT22;8720;48.488;9.202;2023-02-13T16:57:05;6.80;57.00
17208;DHT22;8720;48.488;9.202;2023-02-13T16:59:58;6.80;57.40